createdAt,value
2018-04-01T00:00:17.378Z,-50.00
2018-04-01T00:01:17.352Z,-50.00
2018-04-01T00:02:17.333Z,-50.00
2018-04-01T00:03:17.295Z,-50.00
2018-04-01T00:04:17.272Z,-50.00
2018-04-01T00:05:17.246Z,-50.00
2018-04-01T00:06:17.223Z,-50.00
2018-04-01T00:07:17.193Z,-50.00
2018-04-01T00:08:17.164Z,-49.00
2018-04-01T00:09:17.138Z,-50.00
2018-04-01T00:10:17.114Z,-50.00
2018-04-01T00:11:17.082Z,-50.00
2018-04-01T00:12:17.054Z,-50.00
2018-04-01T00:13:17.037Z,-50.00
2018-04-01T00:14:17.004Z,-50.00
2018-04-01T00:15:16.982Z,-50.00
2018-04-01T00:16:16.951Z,-50.00
2018-04-01T00:17:16.923Z,-50.00
2018-04-01T00:18:16.892Z,-50.00
2018-04-01T00:19:16.872Z,-50.00
2018-04-01T00:20:16.848Z,-50.00
2018-04-01T00:21:16.813Z,-50.00
2018-04-01T00:22:16.790Z,-49.00
2018-04-01T00:23:16.764Z,-50.00
2018-04-01T00:24:16.747Z,-50.00
2018-04-01T00:25:16.720Z,-50.00
2018-04-01T00:26:16.700Z,-50.00
2018-04-01T00:27:16.654Z,-50.00
2018-04-01T00:28:16.638Z,-50.00
2018-04-01T00:29:16.604Z,-50.00
2018-04-01T00:30:16.572Z,-50.00
2018-04-01T00:31:16.545Z,-50.00
2018-04-01T00:32:16.527Z,-50.00
2018-04-01T00:33:16.493Z,-50.00
2018-04-01T00:34:16.461Z,-50.00
2018-04-01T00:35:16.448Z,-50.00
2018-04-01T00:36:16.419Z,-50.00
2018-04-01T00:37:16.379Z,-49.00
2018-04-01T00:38:16.385Z,-50.00
2018-04-01T00:39:16.331Z,-49.00
2018-04-01T00:40:16.307Z,-50.00
2018-04-01T00:41:16.292Z,-50.00
2018-04-01T00:42:16.254Z,-50.00
2018-04-01T00:43:16.228Z,-50.00
2018-04-01T00:44:16.197Z,-50.00
2018-04-01T00:45:16.172Z,-50.00
2018-04-01T00:46:16.151Z,-50.00
2018-04-01T00:47:16.124Z,-50.00
2018-04-01T00:48:16.095Z,-50.00
2018-04-01T00:49:16.060Z,-50.00
2018-04-01T00:50:16.059Z,-50.00
2018-04-01T00:51:16.009Z,-50.00
2018-04-01T00:52:15.983Z,-50.00
2018-04-01T00:53:15.954Z,-50.00
2018-04-01T00:54:15.930Z,-49.00
2018-04-01T00:55:15.900Z,-50.00
2018-04-01T00:56:15.876Z,-50.00
2018-04-01T00:57:15.853Z,-50.00
2018-04-01T00:58:15.822Z,-50.00
2018-04-01T00:59:15.800Z,-50.00
2018-04-01T01:00:15.769Z,-50.00
2018-04-01T01:01:15.739Z,-50.00
2018-04-01T01:02:15.721Z,-50.00
2018-04-01T01:03:15.687Z,-50.00
2018-04-01T01:04:15.656Z,-50.00
2018-04-01T01:05:15.632Z,-50.00
2018-04-01T01:06:15.607Z,-50.00
2018-04-01T01:07:15.577Z,-49.00
2018-04-01T01:08:15.553Z,-50.00
2018-04-01T01:09:15.530Z,-50.00
2018-04-01T01:10:15.494Z,-50.00
2018-04-01T01:11:15.468Z,-50.00
2018-04-01T01:12:15.442Z,-50.00
2018-04-01T01:13:15.416Z,-50.00
2018-04-01T01:14:15.391Z,-50.00
2018-04-01T01:15:15.367Z,-50.00
2018-04-01T01:16:15.334Z,-50.00
2018-04-01T01:17:15.312Z,-50.00
2018-04-01T01:18:15.283Z,-50.00
2018-04-01T01:19:15.267Z,-50.00
2018-04-01T01:20:15.228Z,-50.00
2018-04-01T01:21:15.209Z,-50.00
2018-04-01T01:22:15.173Z,-50.00
2018-04-01T01:23:15.146Z,-50.00
2018-04-01T01:24:15.125Z,-50.00
2018-04-01T01:25:15.092Z,-50.00
2018-04-01T01:26:15.064Z,-50.00
2018-04-01T01:27:15.039Z,-49.00
2018-04-01T01:28:15.016Z,-50.00
2018-04-01T01:29:14.981Z,-50.00
2018-04-01T01:30:14.953Z,-50.00
2018-04-01T01:31:14.933Z,-50.00
2018-04-01T01:32:14.908Z,-50.00
2018-04-01T01:33:14.876Z,-50.00
2018-04-01T01:34:14.846Z,-50.00
2018-04-01T01:35:14.823Z,-50.00
2018-04-01T01:36:14.795Z,-49.00
2018-04-01T01:37:14.776Z,-50.00
2018-04-01T01:38:14.746Z,-50.00
2018-04-01T01:39:14.726Z,-50.00
2018-04-01T01:40:14.681Z,-50.00
2018-04-01T01:41:14.656Z,-50.00
2018-04-01T01:42:14.631Z,-50.00
2018-04-01T01:43:14.611Z,-50.00
2018-04-01T01:44:14.576Z,-50.00
2018-04-01T01:45:14.557Z,-50.00
2018-04-01T01:46:14.533Z,-50.00
2018-04-01T01:47:14.503Z,-50.00
2018-04-01T01:48:14.468Z,-50.00
2018-04-01T01:49:14.447Z,-50.00
2018-04-01T01:50:14.415Z,-50.00
2018-04-01T01:51:14.391Z,-49.00
2018-04-01T01:52:14.367Z,-50.00
2018-04-01T01:53:14.333Z,-50.00
2018-04-01T01:54:14.309Z,-50.00
2018-04-01T01:55:14.281Z,-50.00
2018-04-01T01:56:14.256Z,-50.00
2018-04-01T01:57:14.225Z,-49.00
2018-04-01T01:58:14.202Z,-50.00
2018-04-01T01:59:14.172Z,-50.00
2018-04-01T02:00:14.141Z,-50.00
2018-04-01T02:01:14.120Z,-50.00
2018-04-01T02:02:14.092Z,-50.00
2018-04-01T02:03:14.076Z,-50.00
2018-04-01T02:04:14.047Z,-50.00
2018-04-01T02:05:14.011Z,-49.00
2018-04-01T02:06:13.994Z,-50.00
2018-04-01T02:07:13.953Z,-50.00
2018-04-01T02:08:13.929Z,-50.00
2018-04-01T02:09:13.897Z,-50.00
2018-04-01T02:10:13.876Z,-50.00
2018-04-01T02:11:13.846Z,-50.00
2018-04-01T02:12:13.826Z,-50.00
2018-04-01T02:13:13.793Z,-50.00
2018-04-01T02:14:13.760Z,-50.00
2018-04-01T02:15:13.742Z,-50.00
2018-04-01T02:16:13.712Z,-50.00
2018-04-01T02:17:13.679Z,-50.00
2018-04-01T02:18:13.663Z,-50.00
2018-04-01T02:19:13.629Z,-50.00
2018-04-01T02:20:13.597Z,-50.00
2018-04-01T02:21:13.578Z,-50.00
2018-04-01T02:22:13.546Z,-50.00
2018-04-01T02:23:13.524Z,-50.00
2018-04-01T02:24:13.496Z,-50.00
2018-04-01T02:25:13.474Z,-50.00
2018-04-01T02:26:13.431Z,-50.00
2018-04-01T02:27:13.408Z,-50.00
2018-04-01T02:28:13.387Z,-50.00
2018-04-01T02:29:13.374Z,-50.00
2018-04-01T02:30:13.333Z,-50.00
2018-04-01T02:31:13.300Z,-50.00
2018-04-01T02:32:13.280Z,-50.00
2018-04-01T02:33:13.249Z,-50.00
2018-04-01T02:34:13.221Z,-50.00
2018-04-01T02:35:13.195Z,-50.00
2018-04-01T02:36:13.172Z,-50.00
2018-04-01T02:37:13.173Z,-50.00
2018-04-01T02:38:13.124Z,-50.00
2018-04-01T02:39:13.082Z,-50.00
2018-04-01T02:40:13.078Z,-50.00
2018-04-01T02:41:13.035Z,-50.00
2018-04-01T02:42:13.013Z,-50.00
2018-04-01T02:43:12.975Z,-50.00
2018-04-01T02:44:12.950Z,-50.00
2018-04-01T02:45:12.923Z,-50.00
2018-04-01T02:46:12.891Z,-50.00
2018-04-01T02:47:12.868Z,-50.00
2018-04-01T02:48:12.841Z,-50.00
2018-04-01T02:49:12.832Z,-50.00
2018-04-01T02:50:12.788Z,-50.00
2018-04-01T02:51:12.761Z,-50.00
2018-04-01T02:52:12.742Z,-50.00
2018-04-01T02:53:12.705Z,-50.00
2018-04-01T02:54:12.674Z,-50.00
2018-04-01T02:55:12.662Z,-50.00
2018-04-01T02:56:12.625Z,-50.00
2018-04-01T02:57:12.597Z,-50.00
2018-04-01T02:58:12.569Z,-50.00
2018-04-01T02:59:12.542Z,-50.00
2018-04-01T03:00:12.516Z,-50.00
2018-04-01T03:01:12.488Z,-50.00
2018-04-01T03:02:12.462Z,-50.00
2018-04-01T03:03:12.431Z,-50.00
2018-04-01T03:04:12.406Z,-50.00
2018-04-01T03:05:12.378Z,-50.00
2018-04-01T03:06:12.355Z,-50.00
2018-04-01T03:07:12.323Z,-50.00
2018-04-01T03:08:12.298Z,-50.00
2018-04-01T03:09:12.272Z,-50.00
2018-04-01T03:10:12.248Z,-50.00
2018-04-01T03:11:12.218Z,-50.00
2018-04-01T03:12:12.188Z,-50.00
2018-04-01T03:13:12.161Z,-50.00
2018-04-01T03:14:12.132Z,-50.00
2018-04-01T03:15:12.106Z,-50.00
2018-04-01T03:16:12.077Z,-50.00
2018-04-01T03:17:12.052Z,-50.00
2018-04-01T03:18:12.024Z,-50.00
2018-04-01T03:19:11.994Z,-50.00
2018-04-01T03:20:11.979Z,-50.00
2018-04-01T03:21:11.940Z,-50.00
2018-04-01T03:22:11.918Z,-50.00
2018-04-01T03:23:11.889Z,-50.00
2018-04-01T03:24:11.859Z,-50.00
2018-04-01T03:25:11.829Z,-50.00
2018-04-01T03:26:11.807Z,-50.00
2018-04-01T03:27:11.776Z,-50.00
2018-04-01T03:28:11.763Z,-50.00
2018-04-01T03:29:11.725Z,-50.00
2018-04-01T03:30:11.699Z,-50.00
2018-04-01T03:31:11.679Z,-50.00
2018-04-01T03:32:11.636Z,-50.00
2018-04-01T03:33:11.647Z,-50.00
2018-04-01T03:34:11.587Z,-50.00
2018-04-01T03:35:11.558Z,-50.00
2018-04-01T03:36:11.537Z,-50.00
2018-04-01T03:37:11.510Z,-50.00
2018-04-01T03:38:11.501Z,-50.00
2018-04-01T03:39:11.450Z,-50.00
2018-04-01T03:40:11.438Z,-50.00
2018-04-01T03:41:11.410Z,-50.00
2018-04-01T03:42:11.368Z,-50.00
2018-04-01T03:43:11.353Z,-50.00
2018-04-01T03:44:11.326Z,-50.00
2018-04-01T03:45:11.289Z,-50.00
2018-04-01T03:46:11.263Z,-50.00
2018-04-01T03:47:11.233Z,-50.00
2018-04-01T03:48:11.204Z,-50.00
2018-04-01T03:49:11.184Z,-50.00
2018-04-01T03:50:11.151Z,-50.00
2018-04-01T03:51:11.120Z,-50.00
2018-04-01T03:52:11.110Z,-50.00
2018-04-01T03:53:11.071Z,-50.00
2018-04-01T03:54:11.038Z,-50.00
2018-04-01T03:55:11.017Z,-50.00
2018-04-01T03:56:11.041Z,-50.00
2018-04-01T03:57:10.966Z,-50.00
2018-04-01T03:58:10.939Z,-50.00
2018-04-01T03:59:10.906Z,-50.00
2018-04-01T04:00:10.878Z,-50.00
2018-04-01T04:01:10.857Z,-50.00
2018-04-01T04:02:10.820Z,-50.00
2018-04-01T04:03:10.796Z,-50.00
2018-04-01T04:04:10.784Z,-50.00
2018-04-01T04:05:10.740Z,-50.00
2018-04-01T04:06:10.710Z,-50.00
2018-04-01T04:07:10.704Z,-50.00
2018-04-01T04:08:10.663Z,-50.00
2018-04-01T04:09:10.627Z,-50.00
2018-04-01T04:10:10.602Z,-50.00
2018-04-01T04:11:10.576Z,-50.00
2018-04-01T04:12:10.544Z,-50.00
2018-04-01T04:13:10.524Z,-50.00
2018-04-01T04:14:10.496Z,-50.00
2018-04-01T04:15:10.470Z,-50.00
2018-04-01T04:16:10.445Z,-50.00
2018-04-01T04:17:10.413Z,-50.00
2018-04-01T04:18:10.379Z,-50.00
2018-04-01T04:19:10.357Z,-50.00
2018-04-01T04:20:10.331Z,-50.00
2018-04-01T04:21:10.295Z,-50.00
2018-04-01T04:22:10.282Z,-50.00
2018-04-01T04:23:10.246Z,-49.00
2018-04-01T04:24:10.213Z,-50.00
2018-04-01T04:25:10.196Z,-50.00
2018-04-01T04:26:10.164Z,-50.00
2018-04-01T04:27:10.143Z,-50.00
2018-04-01T04:28:10.114Z,-50.00
2018-04-01T04:29:10.082Z,-50.00
2018-04-01T04:30:10.052Z,-50.00
2018-04-01T04:31:10.031Z,-50.00
2018-04-01T04:32:10.023Z,-49.00
2018-04-01T04:33:10.063Z,-50.00
2018-04-01T04:34:09.978Z,-50.00
2018-04-01T04:35:09.929Z,-49.00
2018-04-01T04:36:09.886Z,-50.00
2018-04-01T04:37:09.863Z,-50.00
2018-04-01T04:38:09.857Z,-50.00
2018-04-01T04:39:09.802Z,-50.00
2018-04-01T04:40:09.785Z,-49.00
2018-04-01T04:41:09.754Z,-50.00
2018-04-01T04:42:09.719Z,-50.00
2018-04-01T04:43:09.699Z,-50.00
2018-04-01T04:44:09.678Z,-49.00
2018-04-01T04:45:09.669Z,-49.00
2018-04-01T04:46:09.622Z,-50.00
2018-04-01T04:47:09.596Z,-50.00
2018-04-01T04:48:09.569Z,-50.00
2018-04-01T04:49:09.552Z,-50.00
2018-04-01T04:50:09.510Z,-49.00
2018-04-01T04:51:09.479Z,-50.00
2018-04-01T04:52:09.454Z,-50.00
2018-04-01T04:53:09.428Z,-50.00
2018-04-01T04:54:09.394Z,-49.00
2018-04-01T04:55:09.366Z,-50.00
2018-04-01T04:56:09.345Z,-49.00
2018-04-01T04:57:09.313Z,-49.00
2018-04-01T04:58:09.288Z,-50.00
2018-04-01T04:59:09.261Z,-49.00
2018-04-01T05:00:09.232Z,-50.00
2018-04-01T05:01:09.207Z,-50.00
2018-04-01T05:02:09.182Z,-50.00
2018-04-01T05:03:09.150Z,-49.00
2018-04-01T05:04:09.126Z,-50.00
2018-04-01T05:05:09.097Z,-50.00
2018-04-01T05:06:09.063Z,-49.00
2018-04-01T05:07:09.039Z,-49.00
2018-04-01T05:08:09.010Z,-50.00
2018-04-01T05:09:08.983Z,-49.00
2018-04-01T05:10:08.953Z,-49.00
2018-04-01T05:11:08.923Z,-49.00
2018-04-01T05:12:08.901Z,-49.00
2018-04-01T05:13:08.879Z,-49.00
2018-04-01T05:14:08.849Z,-50.00
2018-04-01T05:15:08.814Z,-50.00
2018-04-01T05:16:08.801Z,-50.00
2018-04-01T05:17:08.769Z,-50.00
2018-04-01T05:18:08.738Z,-50.00
2018-04-01T05:19:08.722Z,-50.00
2018-04-01T05:20:08.683Z,-50.00
2018-04-01T05:21:08.654Z,-50.00
2018-04-01T05:22:08.629Z,-50.00
2018-04-01T05:23:08.604Z,-50.00
2018-04-01T05:24:08.581Z,-50.00
2018-04-01T05:25:08.561Z,-50.00
2018-04-01T05:26:08.524Z,-50.00
2018-04-01T05:27:08.492Z,-50.00
2018-04-01T05:28:08.471Z,-50.00
2018-04-01T05:29:08.441Z,-50.00
2018-04-01T05:30:08.417Z,-50.00
2018-04-01T05:31:08.381Z,-50.00
2018-04-01T05:32:08.351Z,-50.00
2018-04-01T05:33:08.331Z,-50.00
2018-04-01T05:34:08.302Z,-50.00
2018-04-01T05:35:08.285Z,-50.00
2018-04-01T05:36:08.247Z,-50.00
2018-04-01T05:37:08.217Z,-50.00
2018-04-01T05:38:08.189Z,-50.00
2018-04-01T05:39:08.165Z,-50.00
2018-04-01T05:40:08.150Z,-50.00
2018-04-01T05:41:08.115Z,-50.00
2018-04-01T05:42:08.116Z,-50.00
2018-04-01T05:43:08.060Z,-50.00
2018-04-01T05:44:08.048Z,-50.00
2018-04-01T05:45:08.009Z,-50.00
2018-04-01T05:46:07.970Z,-50.00
2018-04-01T05:47:07.938Z,-50.00
2018-04-01T05:48:07.917Z,-50.00
2018-04-01T05:49:07.891Z,-50.00
2018-04-01T05:50:07.859Z,-50.00
2018-04-01T05:51:07.836Z,-50.00
2018-04-01T05:52:07.807Z,-50.00
2018-04-01T05:53:07.776Z,-50.00
2018-04-01T05:54:07.762Z,-50.00
2018-04-01T05:55:07.732Z,-50.00
2018-04-01T05:56:07.697Z,-50.00
2018-04-01T05:57:07.687Z,-50.00
2018-04-01T05:58:07.641Z,-50.00
2018-04-01T05:59:07.615Z,-50.00
2018-04-01T06:00:07.592Z,-50.00
2018-04-01T06:01:07.569Z,-50.00
2018-04-01T06:02:07.532Z,-50.00
2018-04-01T06:03:07.505Z,-50.00
2018-04-01T06:04:07.542Z,-50.00
2018-04-01T06:05:07.447Z,-51.00
2018-04-01T06:06:07.426Z,-50.00
2018-04-01T06:07:07.402Z,-50.00
2018-04-01T06:08:07.366Z,-50.00
2018-04-01T06:09:07.343Z,-50.00
2018-04-01T06:10:07.310Z,-50.00
2018-04-01T06:11:07.285Z,-50.00
2018-04-01T06:12:07.252Z,-50.00
2018-04-01T06:13:07.238Z,-50.00
2018-04-01T06:14:07.209Z,-49.00
2018-04-01T06:15:07.170Z,-50.00
2018-04-01T06:16:07.149Z,-50.00
2018-04-01T06:17:07.128Z,-50.00
2018-04-01T06:18:07.121Z,-50.00
2018-04-01T06:19:07.073Z,-50.00
2018-04-01T06:20:07.041Z,-50.00
2018-04-01T06:21:07.009Z,-51.00
2018-04-01T06:22:06.983Z,-50.00
2018-04-01T06:23:06.959Z,-50.00
2018-04-01T06:24:06.931Z,-50.00
2018-04-01T06:25:06.905Z,-50.00
2018-04-01T06:26:06.880Z,-50.00
2018-04-01T06:27:06.851Z,-50.00
2018-04-01T06:28:06.834Z,-50.00
2018-04-01T06:29:06.800Z,-50.00
2018-04-01T06:30:06.770Z,-50.00
2018-04-01T06:31:06.748Z,-51.00
2018-04-01T06:32:06.718Z,-50.00
2018-04-01T06:33:06.692Z,-50.00
2018-04-01T06:34:06.659Z,-50.00
2018-04-01T06:35:06.635Z,-50.00
2018-04-01T06:36:06.609Z,-50.00
2018-04-01T06:37:06.585Z,-50.00
2018-04-01T06:38:06.558Z,-50.00
2018-04-01T06:39:06.529Z,-50.00
2018-04-01T06:40:06.508Z,-50.00
2018-04-01T06:41:06.482Z,-50.00
2018-04-01T06:42:06.447Z,-51.00
2018-04-01T06:43:06.431Z,-50.00
2018-04-01T06:44:06.397Z,-50.00
2018-04-01T06:45:06.371Z,-50.00
2018-04-01T06:46:06.340Z,-50.00
2018-04-01T06:47:06.319Z,-50.00
2018-04-01T06:48:06.303Z,-50.00
2018-04-01T06:49:06.262Z,-50.00
2018-04-01T06:50:06.239Z,-50.00
2018-04-01T06:51:06.217Z,-50.00
2018-04-01T06:52:06.176Z,-50.00
2018-04-01T06:53:06.154Z,-50.00
2018-04-01T06:54:06.122Z,-50.00
2018-04-01T06:55:06.109Z,-51.00
2018-04-01T06:56:06.069Z,-51.00
2018-04-01T06:57:06.047Z,-50.00
2018-04-01T06:58:06.028Z,-50.00
2018-04-01T06:59:05.990Z,-50.00
2018-04-01T07:00:05.971Z,-50.00
2018-04-01T07:01:05.943Z,-50.00
2018-04-01T07:02:05.924Z,-51.00
2018-04-01T07:03:05.894Z,-50.00
2018-04-01T07:04:05.861Z,-50.00
2018-04-01T07:05:05.841Z,-50.00
2018-04-01T07:06:05.808Z,-50.00
2018-04-01T07:07:05.777Z,-50.00
2018-04-01T07:08:05.764Z,-50.00
2018-04-01T07:09:05.726Z,-50.00
2018-04-01T07:10:05.705Z,-50.00
2018-04-01T07:11:05.673Z,-50.00
2018-04-01T07:12:05.664Z,-50.00
2018-04-01T07:13:05.624Z,-50.00
2018-04-01T07:14:05.595Z,-50.00
2018-04-01T07:15:05.582Z,-50.00
2018-04-01T07:16:05.542Z,-50.00
2018-04-01T07:17:05.512Z,-50.00
2018-04-01T07:18:05.488Z,-50.00
2018-04-01T07:19:05.465Z,-50.00
2018-04-01T07:20:05.442Z,-51.00
2018-04-01T07:21:05.409Z,-50.00
2018-04-01T07:22:05.387Z,-50.00
2018-04-01T07:23:05.395Z,-50.00
2018-04-01T07:24:05.329Z,-50.00
2018-04-01T07:25:05.301Z,-50.00
2018-04-01T07:26:05.282Z,-50.00
2018-04-01T07:27:05.254Z,-51.00
2018-04-01T07:28:05.226Z,-51.00
2018-04-01T07:29:05.200Z,-50.00
2018-04-01T07:30:05.192Z,-50.00
2018-04-01T07:31:05.147Z,-51.00
2018-04-01T07:32:05.127Z,-51.00
2018-04-01T07:33:05.094Z,-51.00
2018-04-01T07:34:05.067Z,-50.00
2018-04-01T07:35:05.047Z,-50.00
2018-04-01T07:36:05.027Z,-51.00
2018-04-01T07:37:04.990Z,-51.00
2018-04-01T07:38:04.963Z,-51.00
2018-04-01T07:39:04.941Z,-51.00
2018-04-01T07:40:04.919Z,-51.00
2018-04-01T07:41:04.881Z,-51.00
2018-04-01T07:42:04.861Z,-51.00
2018-04-01T07:43:04.838Z,-50.00
2018-04-01T07:44:04.805Z,-50.00
2018-04-01T07:45:04.778Z,-50.00
2018-04-01T07:46:04.755Z,-50.00
2018-04-01T07:47:04.728Z,-49.00
2018-04-01T07:48:04.758Z,-50.00
2018-04-01T07:49:04.674Z,-50.00
2018-04-01T07:50:04.657Z,-50.00
2018-04-01T07:51:04.656Z,-49.00
2018-04-01T07:52:04.596Z,-50.00
2018-04-01T07:53:04.571Z,-49.00
2018-04-01T07:54:04.550Z,-50.00
2018-04-01T07:55:04.516Z,-50.00
2018-04-01T07:56:04.499Z,-50.00
2018-04-01T07:57:04.465Z,-50.00
2018-04-01T07:58:04.448Z,-50.00
2018-04-01T07:59:04.415Z,-50.00
2018-04-01T08:00:04.387Z,-50.00
2018-04-01T08:01:04.360Z,-53.00
2018-04-01T08:02:04.334Z,-52.00
2018-04-01T08:03:04.305Z,-52.00
2018-04-01T08:04:04.285Z,-52.00
2018-04-01T08:05:04.255Z,-52.00
2018-04-01T08:06:04.225Z,-53.00
2018-04-01T08:07:04.203Z,-52.00
2018-04-01T08:08:04.202Z,-52.00
2018-04-01T08:09:04.145Z,-52.00
2018-04-01T08:10:04.125Z,-52.00
2018-04-01T08:11:04.103Z,-52.00
2018-04-01T08:12:04.079Z,-53.00
2018-04-01T08:13:04.051Z,-52.00
2018-04-01T08:14:04.020Z,-52.00
2018-04-01T08:15:03.997Z,-52.00
2018-04-01T08:16:03.970Z,-52.00
2018-04-01T08:17:03.949Z,-52.00
2018-04-01T08:18:03.916Z,-52.00
2018-04-01T08:19:03.901Z,-52.00
2018-04-01T08:20:03.862Z,-52.00
2018-04-01T08:21:03.841Z,-52.00
2018-04-01T08:22:03.817Z,-52.00
2018-04-01T08:23:03.786Z,-52.00
2018-04-01T08:24:03.756Z,-53.00
2018-04-01T08:25:03.733Z,-53.00
2018-04-01T08:26:03.724Z,-52.00
2018-04-01T08:27:03.686Z,-53.00
2018-04-01T08:28:03.657Z,-53.00
2018-04-01T08:29:03.632Z,-52.00
2018-04-01T08:30:03.609Z,-52.00
2018-04-01T08:31:03.578Z,-52.00
2018-04-01T08:32:03.550Z,-52.00
2018-04-01T08:33:03.527Z,-52.00
2018-04-01T08:34:03.508Z,-53.00
2018-04-01T08:35:03.470Z,-53.00
2018-04-01T08:36:03.450Z,-53.00
2018-04-01T08:37:03.423Z,-53.00
2018-04-01T08:38:03.399Z,-53.00
2018-04-01T08:39:03.378Z,-53.00
2018-04-01T08:40:03.399Z,-52.00
2018-04-01T08:41:03.323Z,-51.00
2018-04-01T08:42:03.297Z,-52.00
2018-04-01T08:43:03.264Z,-51.00
2018-04-01T08:44:03.239Z,-51.00
2018-04-01T08:45:03.218Z,-51.00
2018-04-01T08:46:03.191Z,-50.00
2018-04-01T08:47:03.160Z,-51.00
2018-04-01T08:48:03.171Z,-51.00
2018-04-01T08:49:03.128Z,-51.00
2018-04-01T08:50:03.091Z,-50.00
2018-04-01T08:51:03.094Z,-52.00
2018-04-01T08:52:03.096Z,-50.00
2018-04-01T08:53:03.009Z,-51.00
2018-04-01T08:54:02.989Z,-52.00
2018-04-01T08:55:02.975Z,-52.00
2018-04-01T08:56:02.927Z,-51.00
2018-04-01T08:57:02.922Z,-53.00
2018-04-01T08:58:02.881Z,-51.00
2018-04-01T08:59:02.869Z,-52.00
2018-04-01T09:00:02.836Z,-53.00
2018-04-01T09:01:02.819Z,-50.00
2018-04-01T09:02:02.789Z,-52.00
2018-04-01T09:03:02.747Z,-52.00
2018-04-01T09:04:02.760Z,-52.00
2018-04-01T09:05:02.699Z,-52.00
2018-04-01T09:06:02.676Z,-51.00
2018-04-01T09:07:02.646Z,-51.00
2018-04-01T09:08:02.624Z,-51.00
2018-04-01T09:09:02.592Z,-51.00
2018-04-01T09:10:02.567Z,-52.00
2018-04-01T09:11:02.548Z,-51.00
2018-04-01T09:12:02.557Z,-51.00
2018-04-01T09:13:02.490Z,-52.00
2018-04-01T09:14:02.474Z,-50.00
2018-04-01T09:15:02.438Z,-50.00
2018-04-01T09:16:02.409Z,-50.00
2018-04-01T09:17:02.392Z,-51.00
2018-04-01T09:18:02.358Z,-51.00
2018-04-01T09:19:02.339Z,-53.00
2018-04-01T09:20:02.308Z,-51.00
2018-04-01T09:21:02.285Z,-51.00
2018-04-01T09:22:02.260Z,-51.00
2018-04-01T09:23:02.241Z,-52.00
2018-04-01T09:24:02.207Z,-51.00
2018-04-01T09:25:02.206Z,-50.00
2018-04-01T09:26:02.158Z,-51.00
2018-04-01T09:27:02.130Z,-51.00
2018-04-01T09:28:02.100Z,-52.00
2018-04-01T09:29:02.077Z,-51.00
2018-04-01T09:30:02.051Z,-51.00
2018-04-01T09:31:02.027Z,-51.00
2018-04-01T09:32:02.000Z,-52.00
2018-04-01T09:33:01.976Z,-54.00
2018-04-01T09:34:01.951Z,-52.00
2018-04-01T09:35:01.922Z,-52.00
2018-04-01T09:36:01.898Z,-51.00
2018-04-01T09:37:01.908Z,-52.00
2018-04-01T09:38:01.847Z,-51.00
2018-04-01T09:39:01.823Z,-52.00
2018-04-01T09:40:01.794Z,-51.00
2018-04-01T09:41:01.770Z,-52.00
2018-04-01T09:42:01.744Z,-51.00
2018-04-01T09:43:01.731Z,-52.00
2018-04-01T09:44:01.704Z,-51.00
2018-04-01T09:45:01.672Z,-51.00
2018-04-01T09:46:01.641Z,-51.00
2018-04-01T09:47:01.621Z,-52.00
2018-04-01T09:48:01.591Z,-52.00
2018-04-01T09:49:01.563Z,-52.00
2018-04-01T09:50:01.536Z,-52.00
2018-04-01T09:51:01.507Z,-52.00
2018-04-01T09:52:01.492Z,-53.00
2018-04-01T09:53:01.462Z,-52.00
2018-04-01T09:54:01.433Z,-52.00
2018-04-01T09:55:01.411Z,-53.00
2018-04-01T09:56:01.385Z,-51.00
2018-04-01T09:57:01.354Z,-50.00
2018-04-01T09:58:01.328Z,-50.00
2018-04-01T09:59:01.302Z,-53.00
2018-04-01T10:00:01.278Z,-51.00
2018-04-01T10:01:01.257Z,-52.00
2018-04-01T10:02:01.246Z,-50.00
2018-04-01T10:03:01.202Z,-51.00
2018-04-01T10:04:01.177Z,-52.00
2018-04-01T10:05:01.151Z,-52.00
2018-04-01T10:06:01.120Z,-54.00
2018-04-01T10:07:01.098Z,-52.00
2018-04-01T10:08:01.094Z,-53.00
2018-04-01T10:09:01.046Z,-53.00
2018-04-01T10:10:01.018Z,-53.00
2018-04-01T10:11:00.999Z,-53.00
2018-04-01T10:12:00.977Z,-55.00
2018-04-01T10:13:00.945Z,-53.00
2018-04-01T10:14:00.912Z,-52.00
2018-04-01T10:15:00.892Z,-51.00
2018-04-01T10:16:00.866Z,-52.00
2018-04-01T10:17:00.835Z,-51.00
2018-04-01T10:18:00.813Z,-51.00
2018-04-01T10:19:00.789Z,-51.00
2018-04-01T10:20:00.782Z,-52.00
2018-04-01T10:21:00.733Z,-49.00
2018-04-01T10:22:00.711Z,-52.00
2018-04-01T10:23:00.684Z,-52.00
2018-04-01T10:24:00.651Z,-52.00
2018-04-01T10:25:00.627Z,-52.00
2018-04-01T10:26:00.611Z,-53.00
2018-04-01T10:27:00.594Z,-52.00
2018-04-01T10:28:00.548Z,-52.00
2018-04-01T10:29:00.531Z,-52.00
2018-04-01T10:30:00.504Z,-53.00
2018-04-01T10:31:00.473Z,-53.00
2018-04-01T10:32:00.446Z,-53.00
2018-04-01T10:33:00.423Z,-52.00
2018-04-01T10:34:00.408Z,-53.00
2018-04-01T10:35:00.367Z,-52.00
2018-04-01T10:36:00.349Z,-53.00
2018-04-01T10:37:00.318Z,-53.00
2018-04-01T10:38:00.352Z,-52.00
2018-04-01T10:39:00.269Z,-52.00
2018-04-01T10:40:00.236Z,-52.00
2018-04-01T10:41:00.224Z,-52.00
2018-04-01T10:42:00.190Z,-52.00
2018-04-01T10:43:00.159Z,-52.00
2018-04-01T10:44:00.133Z,-52.00
2018-04-01T10:45:00.108Z,-52.00
2018-04-01T10:46:00.088Z,-53.00
2018-04-01T10:47:00.057Z,-52.00
2018-04-01T10:48:00.032Z,-53.00
2018-04-01T10:49:00.008Z,-53.00
2018-04-01T10:49:59.981Z,-52.00
2018-04-01T10:50:59.952Z,-52.00
2018-04-01T10:51:59.937Z,-52.00
2018-04-01T10:52:59.913Z,-52.00
2018-04-01T10:53:59.875Z,-53.00
2018-04-01T10:54:59.862Z,-52.00
2018-04-01T10:55:59.831Z,-52.00
2018-04-01T10:56:59.813Z,-52.00
2018-04-01T10:57:59.776Z,-53.00
2018-04-01T10:58:59.757Z,-53.00
2018-04-01T10:59:59.730Z,-53.00
2018-04-01T11:00:59.695Z,-52.00
2018-04-01T11:01:59.671Z,-53.00
2018-04-01T11:02:59.653Z,-53.00
2018-04-01T11:03:59.654Z,-52.00
2018-04-01T11:04:59.589Z,-52.00
2018-04-01T11:05:59.614Z,-52.00
2018-04-01T11:06:59.542Z,-53.00
2018-04-01T11:07:59.516Z,-52.00
2018-04-01T11:08:59.504Z,-53.00
2018-04-01T11:09:59.466Z,-53.00
2018-04-01T11:10:59.439Z,-53.00
2018-04-01T11:11:59.413Z,-53.00
2018-04-01T11:12:59.386Z,-53.00
2018-04-01T11:13:59.368Z,-52.00
2018-04-01T11:14:59.334Z,-53.00
2018-04-01T11:15:59.308Z,-53.00
2018-04-01T11:16:59.301Z,-52.00
2018-04-01T11:17:59.266Z,-53.00
2018-04-01T11:18:59.233Z,-53.00
2018-04-01T11:19:59.205Z,-53.00
2018-04-01T11:20:59.180Z,-53.00
2018-04-01T11:21:59.155Z,-53.00
2018-04-01T11:22:59.123Z,-53.00
2018-04-01T11:23:59.100Z,-53.00
2018-04-01T11:24:59.078Z,-52.00
2018-04-01T11:25:59.093Z,-53.00
2018-04-01T11:26:59.020Z,-52.00
2018-04-01T11:27:58.998Z,-52.00
2018-04-01T11:28:58.969Z,-52.00
2018-04-01T11:29:58.947Z,-52.00
2018-04-01T11:30:58.916Z,-52.00
2018-04-01T11:31:58.891Z,-52.00
2018-04-01T11:32:58.873Z,-52.00
2018-04-01T11:33:58.844Z,-52.00
2018-04-01T11:34:58.814Z,-52.00
2018-04-01T11:35:58.792Z,-53.00
2018-04-01T11:36:58.775Z,-53.00
2018-04-01T11:37:58.739Z,-52.00
2018-04-01T11:38:58.709Z,-52.00
2018-04-01T11:39:58.688Z,-52.00
2018-04-01T11:40:58.671Z,-52.00
2018-04-01T11:41:58.636Z,-53.00
2018-04-01T11:42:58.611Z,-53.00
2018-04-01T11:43:58.584Z,-53.00
2018-04-01T11:44:58.558Z,-53.00
2018-04-01T11:45:58.530Z,-53.00
2018-04-01T11:46:58.510Z,-52.00
2018-04-01T11:47:58.487Z,-52.00
2018-04-01T11:48:58.470Z,-52.00
2018-04-01T11:49:58.432Z,-52.00
2018-04-01T11:50:58.462Z,-52.00
2018-04-01T11:51:58.383Z,-53.00
2018-04-01T11:52:58.366Z,-52.00
2018-04-01T11:53:58.323Z,-52.00
2018-04-01T11:54:58.302Z,-53.00
2018-04-01T11:55:58.278Z,-52.00
2018-04-01T11:56:58.250Z,-53.00
2018-04-01T11:57:58.221Z,-53.00
2018-04-01T11:58:58.209Z,-53.00
2018-04-01T11:59:58.171Z,-52.00
2018-04-01T12:00:58.143Z,-50.00
2018-04-01T12:01:58.129Z,-51.00
2018-04-01T12:02:58.143Z,-51.00
2018-04-01T12:03:58.075Z,-50.00
2018-04-01T12:04:58.052Z,-49.00
2018-04-01T12:05:58.020Z,-48.00
2018-04-01T12:06:57.996Z,-50.00
2018-04-01T12:07:57.972Z,-50.00
2018-04-01T12:08:57.982Z,-49.00
2018-04-01T12:09:57.913Z,-54.00
2018-04-01T12:10:57.886Z,-52.00
2018-04-01T12:11:57.862Z,-54.00
2018-04-01T12:12:57.835Z,-53.00
2018-04-01T12:13:57.816Z,-53.00
2018-04-01T12:14:57.798Z,-52.00
2018-04-01T12:15:57.756Z,-52.00
2018-04-01T12:16:57.732Z,-52.00
2018-04-01T12:17:57.707Z,-52.00
2018-04-01T12:18:57.680Z,-53.00
2018-04-01T12:19:57.683Z,-54.00
2018-04-01T12:20:57.631Z,-53.00
2018-04-01T12:21:57.604Z,-53.00
2018-04-01T12:22:57.587Z,-55.00
2018-04-01T12:23:57.591Z,-54.00
2018-04-01T12:24:57.522Z,-53.00
2018-04-01T12:25:57.521Z,-52.00
2018-04-01T12:26:57.473Z,-53.00
2018-04-01T12:27:57.451Z,-53.00